RYR135 GCLP-LEZL
Flight info
| Callsign | RYR135 |
|---|---|
| Flight time | 1h 51m |
| Altitude | 38000 |
| Route | KORAL UG5 SONSO DCT NIRAL UN871 ADUBI DCT VJF |
| Aircraft | B738/M-SDE2E3FGHIRWXY/LB1 |
Departure
| Time | 2026-04-23 22:01 |
|---|---|
| Airport | Gran Canaria Airport (GCLP) |
Arrival
| Time | 2026-04-23 23:52 |
|---|---|
| Airport | Seville Airport (LEZL) |
| Time | Latitude | Longitude | Altitude | Speed | Heading |
|---|---|---|---|---|---|
| 2026-04-23 21:38 | 27.92638 | -15.39212 | 65 ft | 0 kts | 21° |
| 2026-04-23 21:57 | 27.92656 | -15.39177 | 92 ft | 8 kts | 89° |
| 2026-04-23 21:57 | 27.92640 | -15.39138 | 91 ft | 7 kts | 116° |
| 2026-04-23 21:57 | 27.92595 | -15.39119 | 91 ft | 8 kts | 194° |
| 2026-04-23 21:57 | 27.92545 | -15.39140 | 91 ft | 8 kts | 201° |
| 2026-04-23 21:58 | 27.92497 | -15.39162 | 95 ft | 8 kts | 201° |
| 2026-04-23 21:58 | 27.92436 | -15.39189 | 96 ft | 11 kts | 201° |
| 2026-04-23 21:58 | 27.92350 | -15.39228 | 98 ft | 15 kts | 201° |
| 2026-04-23 21:58 | 27.92243 | -15.39274 | 99 ft | 18 kts | 200° |
| 2026-04-23 21:59 | 27.92103 | -15.39306 | 93 ft | 24 kts | 176° |
| 2026-04-23 21:59 | 27.91963 | -15.39293 | 88 ft | 16 kts | 168° |
| 2026-04-23 21:59 | 27.91891 | -15.39207 | 84 ft | 14 kts | 116° |
| 2026-04-23 22:00 | 27.91890 | -15.39002 | 71 ft | 4 kts | 21° |
| 2026-04-23 22:00 | 27.91895 | -15.39000 | 66 ft | 1 kts | 20° |
| 2026-04-23 22:00 | 27.91929 | -15.38986 | 65 ft | 23 kts | 20° |
| 2026-04-23 22:00 | 27.92347 | -15.38802 | 56 ft | 103 kts | 22° |
| 2026-04-23 22:01 | 27.93220 | -15.38408 | 147 ft | 158 kts | 22° |
| 2026-04-23 22:01 | 27.94244 | -15.37889 | 907 ft | 165 kts | 22° |
| 2026-04-23 22:01 | 27.95297 | -15.37346 | 1810 ft | 165 kts | 21° |
| 2026-04-23 22:01 | 27.96400 | -15.36851 | 2373 ft | 180 kts | 18° |
| 2026-04-23 22:02 | 27.97651 | -15.36330 | 2574 ft | 202 kts | 19° |
| 2026-04-23 22:02 | 27.99015 | -15.35763 | 2786 ft | 219 kts | 17° |
| 2026-04-23 22:02 | 28.00382 | -15.34908 | 3051 ft | 238 kts | 40° |
| 2026-04-23 22:02 | 28.01505 | -15.33438 | 3467 ft | 253 kts | 49° |
| 2026-04-23 22:03 | 28.02563 | -15.31817 | 4151 ft | 258 kts | 51° |
| 2026-04-23 22:03 | 28.03618 | -15.30154 | 4909 ft | 261 kts | 51° |
| 2026-04-23 22:03 | 28.04680 | -15.28474 | 5542 ft | 267 kts | 51° |
| 2026-04-23 22:03 | 28.05766 | -15.26756 | 6298 ft | 269 kts | 51° |
| 2026-04-23 22:04 | 28.06866 | -15.25022 | 6957 ft | 275 kts | 50° |
| 2026-04-23 22:04 | 28.07997 | -15.23246 | 7596 ft | 282 kts | 51° |
| 2026-04-23 22:04 | 28.09158 | -15.21425 | 8250 ft | 288 kts | 51° |
| 2026-04-23 22:04 | 28.10348 | -15.19563 | 8934 ft | 294 kts | 51° |
| 2026-04-23 22:05 | 28.11537 | -15.17703 | 9708 ft | 297 kts | 51° |
| 2026-04-23 22:05 | 28.12769 | -15.15776 | 10297 ft | 308 kts | 51° |
| 2026-04-23 22:05 | 28.14082 | -15.13727 | 10490 ft | 332 kts | 52° |
| 2026-04-23 22:05 | 28.15471 | -15.11559 | 10943 ft | 344 kts | 52° |
| 2026-04-23 22:06 | 28.16894 | -15.09333 | 11594 ft | 350 kts | 52° |
| 2026-04-23 22:06 | 28.18313 | -15.07111 | 12264 ft | 355 kts | 52° |
| 2026-04-23 22:06 | 28.19776 | -15.04818 | 12956 ft | 361 kts | 52° |
| 2026-04-23 22:06 | 28.21258 | -15.02498 | 13650 ft | 367 kts | 52° |
| 2026-04-23 22:07 | 28.22770 | -15.00129 | 14309 ft | 372 kts | 51° |
| 2026-04-23 22:07 | 28.24292 | -14.97742 | 15035 ft | 374 kts | 51° |
| 2026-04-23 22:07 | 28.25824 | -14.95340 | 15769 ft | 377 kts | 51° |
| 2026-04-23 22:07 | 28.27369 | -14.92915 | 16485 ft | 381 kts | 51° |
| 2026-04-23 22:08 | 28.28939 | -14.90452 | 17153 ft | 386 kts | 51° |
| 2026-04-23 22:08 | 28.30521 | -14.87968 | 17845 ft | 390 kts | 51° |
| 2026-04-23 22:08 | 28.32103 | -14.85483 | 18519 ft | 394 kts | 50° |
| 2026-04-23 22:08 | 28.33715 | -14.82949 | 19131 ft | 397 kts | 50° |
| 2026-04-23 22:09 | 28.35339 | -14.80393 | 19766 ft | 400 kts | 50° |
| 2026-04-23 22:09 | 28.36976 | -14.77817 | 20403 ft | 403 kts | 50° |
| 2026-04-23 22:09 | 28.38628 | -14.75216 | 21023 ft | 406 kts | 49° |
| 2026-04-23 22:09 | 28.40261 | -14.72642 | 21617 ft | 409 kts | 49° |
| 2026-04-23 22:10 | 28.41929 | -14.70012 | 22208 ft | 412 kts | 49° |
| 2026-04-23 22:10 | 28.43617 | -14.67350 | 22800 ft | 415 kts | 49° |
| 2026-04-23 22:10 | 28.45312 | -14.64673 | 23399 ft | 418 kts | 48° |
| 2026-04-23 22:10 | 28.47000 | -14.62007 | 23877 ft | 422 kts | 48° |
| 2026-04-23 22:11 | 28.48726 | -14.59280 | 24326 ft | 426 kts | 48° |
| 2026-04-23 22:11 | 28.50464 | -14.56530 | 24789 ft | 430 kts | 48° |
| 2026-04-23 22:11 | 28.52224 | -14.53746 | 25174 ft | 435 kts | 48° |
| 2026-04-23 22:11 | 28.53983 | -14.50961 | 25613 ft | 438 kts | 48° |
| 2026-04-23 22:12 | 28.55762 | -14.48139 | 26083 ft | 441 kts | 48° |
| 2026-04-23 22:12 | 28.57553 | -14.45298 | 26515 ft | 444 kts | 48° |
| 2026-04-23 22:12 | 28.59362 | -14.42426 | 26929 ft | 447 kts | 48° |
| 2026-04-23 22:12 | 28.61177 | -14.39543 | 27337 ft | 451 kts | 48° |
| 2026-04-23 22:13 | 28.63027 | -14.36602 | 27746 ft | 454 kts | 48° |
| 2026-04-23 22:13 | 28.64871 | -14.33669 | 28137 ft | 457 kts | 48° |
| 2026-04-23 22:13 | 28.66732 | -14.30706 | 28537 ft | 460 kts | 48° |
| 2026-04-23 22:13 | 28.68579 | -14.27759 | 28894 ft | 464 kts | 48° |
| 2026-04-23 22:14 | 28.70460 | -14.24756 | 29194 ft | 469 kts | 48° |
| 2026-04-23 22:14 | 28.72364 | -14.21712 | 29599 ft | 471 kts | 48° |
| 2026-04-23 22:14 | 28.74267 | -14.18664 | 29992 ft | 474 kts | 48° |
| 2026-04-23 22:14 | 28.76162 | -14.15627 | 30313 ft | 477 kts | 49° |
| 2026-04-23 22:15 | 28.78091 | -14.12532 | 30622 ft | 479 kts | 49° |
| 2026-04-23 22:15 | 28.80026 | -14.09425 | 30969 ft | 481 kts | 49° |
| 2026-04-23 22:15 | 28.81964 | -14.06313 | 31284 ft | 483 kts | 49° |
| 2026-04-23 22:15 | 28.83926 | -14.03159 | 31576 ft | 485 kts | 49° |
| 2026-04-23 22:16 | 28.85862 | -14.00046 | 31861 ft | 487 kts | 49° |
| 2026-04-23 22:16 | 28.87832 | -13.96876 | 32147 ft | 490 kts | 49° |
| 2026-04-23 22:16 | 28.89805 | -13.93697 | 32418 ft | 491 kts | 49° |
| 2026-04-23 22:16 | 28.91781 | -13.90513 | 32717 ft | 493 kts | 49° |
| 2026-04-23 22:17 | 28.93770 | -13.87301 | 33103 ft | 492 kts | 49° |
| 2026-04-23 22:17 | 28.95718 | -13.84153 | 33527 ft | 490 kts | 49° |
| 2026-04-23 22:17 | 28.97686 | -13.80973 | 33850 ft | 491 kts | 49° |
| 2026-04-23 22:17 | 28.99664 | -13.77775 | 34178 ft | 491 kts | 49° |
| 2026-04-23 22:18 | 29.01632 | -13.74590 | 34497 ft | 491 kts | 49° |
| 2026-04-23 22:18 | 29.03604 | -13.71398 | 34784 ft | 491 kts | 49° |
| 2026-04-23 22:18 | 29.05568 | -13.68215 | 35036 ft | 492 kts | 49° |
| 2026-04-23 22:18 | 29.07519 | -13.65053 | 35289 ft | 492 kts | 49° |
| 2026-04-23 22:19 | 29.09495 | -13.61847 | 35565 ft | 492 kts | 49° |
| 2026-04-23 22:19 | 29.11479 | -13.58625 | 35835 ft | 492 kts | 49° |
| 2026-04-23 22:19 | 29.13452 | -13.55417 | 36098 ft | 493 kts | 49° |
| 2026-04-23 22:19 | 29.15426 | -13.52205 | 36380 ft | 493 kts | 49° |
| 2026-04-23 22:20 | 29.17380 | -13.49024 | 36685 ft | 493 kts | 49° |
| 2026-04-23 22:20 | 29.19356 | -13.45805 | 36836 ft | 496 kts | 48° |
| 2026-04-23 22:20 | 29.21343 | -13.42569 | 37022 ft | 497 kts | 48° |
| 2026-04-23 22:20 | 29.23325 | -13.39335 | 37322 ft | 495 kts | 48° |
| 2026-04-23 22:21 | 29.25303 | -13.36102 | 37613 ft | 495 kts | 48° |
| 2026-04-23 22:21 | 29.27289 | -13.32856 | 37822 ft | 495 kts | 48° |
| 2026-04-23 22:21 | 29.29246 | -13.29656 | 38007 ft | 496 kts | 48° |
| 2026-04-23 22:21 | 29.31225 | -13.26417 | 38248 ft | 497 kts | 48° |
| 2026-04-23 22:22 | 29.33203 | -13.23176 | 38482 ft | 496 kts | 48° |
| 2026-04-23 22:22 | 29.35179 | -13.19935 | 38753 ft | 495 kts | 48° |
| 2026-04-23 22:22 | 29.37155 | -13.16694 | 38926 ft | 495 kts | 48° |
| 2026-04-23 22:22 | 29.39131 | -13.13450 | 39051 ft | 496 kts | 48° |
| 2026-04-23 22:23 | 29.43113 | -13.06910 | 39129 ft | 502 kts | 49° |
| 2026-04-23 22:23 | 29.47110 | -13.00329 | 39123 ft | 502 kts | 49° |
| 2026-04-23 22:24 | 29.51084 | -12.93770 | 39133 ft | 502 kts | 48° |
| 2026-04-23 22:24 | 29.55049 | -12.87218 | 39129 ft | 501 kts | 48° |
| 2026-04-23 22:25 | 29.59014 | -12.80657 | 39119 ft | 499 kts | 48° |
| 2026-04-23 22:25 | 29.62966 | -12.74108 | 39111 ft | 497 kts | 49° |
| 2026-04-23 22:26 | 29.66930 | -12.67534 | 39132 ft | 502 kts | 49° |
| 2026-04-23 22:26 | 29.70927 | -12.60898 | 39133 ft | 509 kts | 49° |
| 2026-04-23 22:27 | 29.74990 | -12.54133 | 39129 ft | 516 kts | 49° |
| 2026-04-23 22:27 | 29.79067 | -12.47331 | 39127 ft | 520 kts | 49° |
| 2026-04-23 22:28 | 29.83189 | -12.40439 | 39136 ft | 523 kts | 49° |
| 2026-04-23 22:28 | 29.87320 | -12.33523 | 39124 ft | 523 kts | 49° |
| 2026-04-23 22:29 | 29.91421 | -12.26645 | 39118 ft | 523 kts | 49° |
| 2026-04-23 22:29 | 29.95532 | -12.19739 | 39115 ft | 521 kts | 49° |
| 2026-04-23 22:30 | 29.98947 | -12.13997 | 39114 ft | 520 kts | 49° |
| 2026-04-23 22:30 | 30.03394 | -12.07511 | 39118 ft | 507 kts | 37° |
| 2026-04-23 22:31 | 30.08441 | -12.01919 | 39107 ft | 504 kts | 36° |
| 2026-04-23 22:31 | 30.13558 | -11.96333 | 39117 ft | 504 kts | 36° |
| 2026-04-23 22:32 | 30.18604 | -11.90741 | 39115 ft | 505 kts | 37° |
| 2026-04-23 22:32 | 30.23662 | -11.85071 | 39114 ft | 505 kts | 37° |
| 2026-04-23 22:33 | 30.28678 | -11.79426 | 39117 ft | 505 kts | 37° |
| 2026-04-23 22:33 | 30.33733 | -11.73728 | 39112 ft | 505 kts | 37° |
| 2026-04-23 22:34 | 30.38746 | -11.68075 | 39112 ft | 506 kts | 37° |
| 2026-04-23 22:34 | 30.43796 | -11.62372 | 39136 ft | 506 kts | 37° |
| 2026-04-23 22:35 | 30.48840 | -11.56668 | 39115 ft | 507 kts | 37° |
| 2026-04-23 22:35 | 30.53876 | -11.50962 | 39114 ft | 506 kts | 37° |
| 2026-04-23 22:36 | 30.58892 | -11.45271 | 39108 ft | 506 kts | 37° |
| 2026-04-23 22:36 | 30.63922 | -11.39555 | 39109 ft | 505 kts | 37° |
| 2026-04-23 22:37 | 30.68956 | -11.33827 | 39111 ft | 505 kts | 37° |
| 2026-04-23 22:37 | 30.73945 | -11.28141 | 39105 ft | 505 kts | 37° |
| 2026-04-23 22:38 | 30.78957 | -11.22419 | 39112 ft | 504 kts | 38° |
| 2026-04-23 22:38 | 30.83938 | -11.16724 | 39111 ft | 503 kts | 38° |
| 2026-04-23 22:39 | 30.88930 | -11.11007 | 39103 ft | 502 kts | 38° |
| 2026-04-23 22:39 | 30.93905 | -11.05302 | 39108 ft | 501 kts | 38° |
| 2026-04-23 22:40 | 30.98865 | -10.99605 | 39108 ft | 500 kts | 38° |
| 2026-04-23 22:41 | 31.06272 | -10.91082 | 39145 ft | 499 kts | 38° |
| 2026-04-23 22:41 | 31.11194 | -10.85408 | 39113 ft | 500 kts | 38° |
| 2026-04-23 22:42 | 31.16152 | -10.79682 | 39106 ft | 500 kts | 38° |
| 2026-04-23 22:42 | 31.21100 | -10.73960 | 39105 ft | 500 kts | 38° |
| 2026-04-23 22:43 | 31.26010 | -10.68271 | 39106 ft | 500 kts | 38° |
| 2026-04-23 22:43 | 31.30951 | -10.62539 | 39106 ft | 500 kts | 38° |
| 2026-04-23 22:44 | 31.35892 | -10.56798 | 39092 ft | 500 kts | 39° |
| 2026-04-23 22:44 | 31.40810 | -10.51075 | 39108 ft | 501 kts | 39° |
| 2026-04-23 22:45 | 31.45757 | -10.45308 | 39113 ft | 501 kts | 39° |
| 2026-04-23 22:45 | 31.50677 | -10.39564 | 39106 ft | 501 kts | 39° |
| 2026-04-23 22:46 | 31.55619 | -10.33785 | 39101 ft | 501 kts | 39° |
| 2026-04-23 22:46 | 31.60568 | -10.27988 | 39104 ft | 501 kts | 39° |
| 2026-04-23 22:47 | 31.65478 | -10.22229 | 39106 ft | 501 kts | 39° |
| 2026-04-23 22:47 | 31.70423 | -10.16419 | 39109 ft | 502 kts | 39° |
| 2026-04-23 22:48 | 31.75339 | -10.10635 | 39110 ft | 503 kts | 39° |
| 2026-04-23 22:48 | 31.80291 | -10.04797 | 39109 ft | 503 kts | 39° |
| 2026-04-23 22:49 | 31.85240 | -9.98954 | 39103 ft | 504 kts | 39° |
| 2026-04-23 22:49 | 31.90161 | -9.93136 | 39088 ft | 504 kts | 40° |
| 2026-04-23 22:50 | 31.95119 | -9.87263 | 39107 ft | 504 kts | 40° |
| 2026-04-23 22:50 | 32.00045 | -9.81420 | 39098 ft | 505 kts | 40° |
| 2026-04-23 22:51 | 32.05009 | -9.75521 | 39105 ft | 505 kts | 40° |
| 2026-04-23 22:51 | 32.09947 | -9.69644 | 39099 ft | 506 kts | 40° |
| 2026-04-23 22:52 | 32.14908 | -9.63730 | 39101 ft | 506 kts | 40° |
| 2026-04-23 22:52 | 32.19833 | -9.57848 | 39101 ft | 507 kts | 40° |
| 2026-04-23 22:53 | 32.24803 | -9.51903 | 39090 ft | 507 kts | 40° |
| 2026-04-23 22:53 | 32.29737 | -9.45993 | 39090 ft | 508 kts | 41° |
| 2026-04-23 22:54 | 32.34716 | -9.40019 | 39095 ft | 508 kts | 41° |
| 2026-04-23 22:54 | 32.39655 | -9.34081 | 39092 ft | 509 kts | 41° |
| 2026-04-23 22:55 | 32.44601 | -9.28126 | 39093 ft | 509 kts | 41° |
| 2026-04-23 22:55 | 32.49565 | -9.22139 | 39091 ft | 509 kts | 41° |
| 2026-04-23 22:56 | 32.54530 | -9.16141 | 39091 ft | 509 kts | 41° |
| 2026-04-23 22:56 | 32.59466 | -9.10168 | 39095 ft | 510 kts | 41° |
| 2026-04-23 22:57 | 32.64438 | -9.04142 | 39092 ft | 510 kts | 41° |
| 2026-04-23 22:57 | 32.69400 | -8.98115 | 39090 ft | 509 kts | 41° |
| 2026-04-23 22:58 | 32.74327 | -8.92124 | 39091 ft | 509 kts | 42° |
| 2026-04-23 22:58 | 32.79286 | -8.86082 | 39087 ft | 508 kts | 42° |
| 2026-04-23 22:59 | 32.84200 | -8.80086 | 39090 ft | 508 kts | 42° |
| 2026-04-23 22:59 | 32.89113 | -8.74079 | 39098 ft | 507 kts | 42° |
| 2026-04-23 23:00 | 32.93999 | -8.68094 | 39073 ft | 496 kts | 43° |
| 2026-04-23 23:00 | 32.98771 | -8.62237 | 39088 ft | 488 kts | 43° |
| 2026-04-23 23:01 | 33.03490 | -8.56442 | 39092 ft | 485 kts | 43° |
| 2026-04-23 23:01 | 33.08157 | -8.50700 | 39095 ft | 483 kts | 43° |
| 2026-04-23 23:02 | 33.12840 | -8.44928 | 39094 ft | 482 kts | 43° |
| 2026-04-23 23:02 | 33.17472 | -8.39211 | 39094 ft | 482 kts | 43° |
| 2026-04-23 23:03 | 33.22607 | -8.34158 | 39086 ft | 475 kts | 28° |
| 2026-04-23 23:03 | 33.28263 | -8.29969 | 39103 ft | 481 kts | 27° |
| 2026-04-23 23:04 | 33.33984 | -8.25768 | 39102 ft | 487 kts | 27° |
| 2026-04-23 23:04 | 33.39757 | -8.21454 | 39097 ft | 490 kts | 28° |
| 2026-04-23 23:05 | 33.45525 | -8.17094 | 39091 ft | 486 kts | 28° |
| 2026-04-23 23:05 | 33.51145 | -8.12828 | 39084 ft | 478 kts | 28° |
| 2026-04-23 23:06 | 33.56774 | -8.08556 | 39100 ft | 478 kts | 28° |
| 2026-04-23 23:06 | 33.62400 | -8.04285 | 39095 ft | 478 kts | 28° |
| 2026-04-23 23:07 | 33.67995 | -8.00029 | 39093 ft | 478 kts | 28° |
| 2026-04-23 23:07 | 33.73637 | -7.95731 | 39100 ft | 479 kts | 29° |
| 2026-04-23 23:08 | 33.79254 | -7.91444 | 39103 ft | 480 kts | 29° |
| 2026-04-23 23:08 | 33.84912 | -7.87119 | 39090 ft | 481 kts | 29° |
| 2026-04-23 23:09 | 33.90542 | -7.82808 | 39088 ft | 481 kts | 29° |
| 2026-04-23 23:09 | 33.96209 | -7.78463 | 39091 ft | 482 kts | 29° |
| 2026-04-23 23:10 | 34.01854 | -7.74127 | 39099 ft | 483 kts | 30° |
| 2026-04-23 23:10 | 34.07526 | -7.69763 | 39098 ft | 483 kts | 30° |
| 2026-04-23 23:11 | 34.13194 | -7.65396 | 39097 ft | 483 kts | 30° |
| 2026-04-23 23:11 | 34.18820 | -7.61054 | 39096 ft | 482 kts | 30° |
| 2026-04-23 23:12 | 34.24482 | -7.56677 | 39111 ft | 481 kts | 31° |
| 2026-04-23 23:12 | 34.30130 | -7.52305 | 39102 ft | 481 kts | 31° |
| 2026-04-23 23:13 | 34.35737 | -7.47956 | 39097 ft | 481 kts | 31° |
| 2026-04-23 23:13 | 34.41387 | -7.43567 | 39095 ft | 481 kts | 31° |
| 2026-04-23 23:14 | 34.47024 | -7.39182 | 39096 ft | 481 kts | 31° |
| 2026-04-23 23:14 | 34.52657 | -7.34791 | 39114 ft | 481 kts | 31° |
| 2026-04-23 23:15 | 34.58251 | -7.30425 | 39097 ft | 481 kts | 31° |
| 2026-04-23 23:15 | 34.63888 | -7.26018 | 39093 ft | 481 kts | 31° |
| 2026-04-23 23:16 | 34.69515 | -7.21610 | 39084 ft | 481 kts | 31° |
| 2026-04-23 23:16 | 34.75112 | -7.17220 | 39091 ft | 481 kts | 31° |
| 2026-04-23 23:17 | 34.80739 | -7.12799 | 39112 ft | 481 kts | 31° |
| 2026-04-23 23:17 | 34.86380 | -7.08360 | 39097 ft | 482 kts | 31° |
| 2026-04-23 23:18 | 34.91992 | -7.03935 | 39091 ft | 483 kts | 31° |
| 2026-04-23 23:18 | 34.97636 | -6.99478 | 39090 ft | 483 kts | 31° |
| 2026-04-23 23:19 | 35.03287 | -6.95009 | 39088 ft | 483 kts | 31° |
| 2026-04-23 23:19 | 35.08898 | -6.90563 | 39092 ft | 483 kts | 32° |
| 2026-04-23 23:20 | 35.13607 | -6.86826 | 39095 ft | 483 kts | 32° |
| 2026-04-23 23:20 | 35.20152 | -6.81624 | 39075 ft | 482 kts | 32° |
| 2026-04-23 23:21 | 35.24866 | -6.77870 | 38919 ft | 485 kts | 32° |
| 2026-04-23 23:21 | 35.27674 | -6.75632 | 38385 ft | 487 kts | 32° |
| 2026-04-23 23:21 | 35.30506 | -6.73373 | 37833 ft | 484 kts | 33° |
| 2026-04-23 23:21 | 35.33327 | -6.71120 | 37269 ft | 483 kts | 33° |
| 2026-04-23 23:22 | 35.36147 | -6.68879 | 36753 ft | 481 kts | 33° |
| 2026-04-23 23:22 | 35.38977 | -6.66684 | 36277 ft | 478 kts | 32° |
| 2026-04-23 23:22 | 35.41790 | -6.64529 | 35870 ft | 474 kts | 32° |
| 2026-04-23 23:22 | 35.44584 | -6.62394 | 35454 ft | 471 kts | 33° |
| 2026-04-23 23:23 | 35.47353 | -6.60274 | 35042 ft | 468 kts | 33° |
| 2026-04-23 23:23 | 35.50110 | -6.58156 | 34635 ft | 465 kts | 33° |
| 2026-04-23 23:23 | 35.52813 | -6.56073 | 34230 ft | 463 kts | 33° |
| 2026-04-23 23:23 | 35.55534 | -6.53970 | 33777 ft | 460 kts | 33° |
| 2026-04-23 23:24 | 35.58241 | -6.51876 | 33367 ft | 457 kts | 34° |
| 2026-04-23 23:24 | 35.60932 | -6.49791 | 32932 ft | 454 kts | 34° |
| 2026-04-23 23:24 | 35.63594 | -6.47728 | 32528 ft | 450 kts | 34° |
| 2026-04-23 23:24 | 35.66207 | -6.45701 | 32113 ft | 447 kts | 34° |
| 2026-04-23 23:25 | 35.68829 | -6.43666 | 31733 ft | 444 kts | 34° |
| 2026-04-23 23:25 | 35.71430 | -6.41645 | 31366 ft | 440 kts | 34° |
| 2026-04-23 23:25 | 35.74016 | -6.39634 | 30636 ft | 444 kts | 34° |
| 2026-04-23 23:25 | 35.76617 | -6.37609 | 30177 ft | 441 kts | 34° |
| 2026-04-23 23:26 | 35.79219 | -6.35583 | 29656 ft | 440 kts | 34° |
| 2026-04-23 23:26 | 35.81796 | -6.33576 | 29238 ft | 435 kts | 34° |
| 2026-04-23 23:26 | 35.84343 | -6.31576 | 28834 ft | 431 kts | 36° |
| 2026-04-23 23:26 | 35.86819 | -6.29518 | 28424 ft | 427 kts | 37° |
| 2026-04-23 23:27 | 35.89241 | -6.27436 | 28057 ft | 422 kts | 37° |
| 2026-04-23 23:27 | 35.91640 | -6.25355 | 27660 ft | 419 kts | 37° |
| 2026-04-23 23:27 | 35.93984 | -6.23324 | 27277 ft | 415 kts | 37° |
| 2026-04-23 23:27 | 35.96339 | -6.21292 | 26898 ft | 412 kts | 37° |
| 2026-04-23 23:28 | 35.98688 | -6.19272 | 26521 ft | 409 kts | 37° |
| 2026-04-23 23:28 | 36.01017 | -6.17274 | 26152 ft | 406 kts | 37° |
| 2026-04-23 23:28 | 36.03336 | -6.15287 | 25781 ft | 403 kts | 37° |
| 2026-04-23 23:28 | 36.05631 | -6.13319 | 25412 ft | 400 kts | 37° |
| 2026-04-23 23:29 | 36.07921 | -6.11355 | 25050 ft | 398 kts | 37° |
| 2026-04-23 23:29 | 36.10161 | -6.09431 | 24696 ft | 396 kts | 37° |
| 2026-04-23 23:29 | 36.12415 | -6.07494 | 24316 ft | 394 kts | 37° |
| 2026-04-23 23:29 | 36.14662 | -6.05562 | 23961 ft | 391 kts | 37° |
| 2026-04-23 23:30 | 36.16891 | -6.03643 | 23580 ft | 390 kts | 37° |
| 2026-04-23 23:30 | 36.19106 | -6.01735 | 23159 ft | 388 kts | 37° |
| 2026-04-23 23:30 | 36.21331 | -5.99819 | 22767 ft | 385 kts | 37° |
| 2026-04-23 23:30 | 36.23538 | -5.97943 | 22399 ft | 383 kts | 33° |
| 2026-04-23 23:31 | 36.25943 | -5.96670 | 22045 ft | 380 kts | 17° |
| 2026-04-23 23:31 | 36.28488 | -5.95739 | 21707 ft | 377 kts | 16° |
| 2026-04-23 23:31 | 36.31003 | -5.94831 | 21338 ft | 375 kts | 16° |
| 2026-04-23 23:31 | 36.33510 | -5.93921 | 20994 ft | 373 kts | 16° |
| 2026-04-23 23:32 | 36.35979 | -5.93013 | 20754 ft | 368 kts | 17° |
| 2026-04-23 23:32 | 36.38399 | -5.92114 | 20510 ft | 366 kts | 17° |
| 2026-04-23 23:32 | 36.40830 | -5.91203 | 20257 ft | 364 kts | 17° |
| 2026-04-23 23:32 | 36.43249 | -5.90292 | 20012 ft | 362 kts | 17° |
| 2026-04-23 23:33 | 36.45662 | -5.89381 | 19771 ft | 361 kts | 17° |
| 2026-04-23 23:33 | 36.48069 | -5.88469 | 19534 ft | 362 kts | 17° |
| 2026-04-23 23:33 | 36.50488 | -5.87552 | 19298 ft | 364 kts | 17° |
| 2026-04-23 23:33 | 36.52882 | -5.86643 | 19065 ft | 363 kts | 17° |
| 2026-04-23 23:34 | 36.55299 | -5.85725 | 18831 ft | 361 kts | 17° |
| 2026-04-23 23:34 | 36.57708 | -5.84810 | 18596 ft | 359 kts | 17° |
| 2026-04-23 23:34 | 36.60096 | -5.83902 | 18357 ft | 358 kts | 17° |
| 2026-04-23 23:34 | 36.62447 | -5.83007 | 18102 ft | 356 kts | 17° |
| 2026-04-23 23:35 | 36.64817 | -5.82104 | 17837 ft | 354 kts | 17° |
| 2026-04-23 23:35 | 36.67175 | -5.81206 | 17575 ft | 353 kts | 17° |
| 2026-04-23 23:35 | 36.69519 | -5.80312 | 17317 ft | 352 kts | 17° |
| 2026-04-23 23:35 | 36.71856 | -5.79421 | 17057 ft | 351 kts | 17° |
| 2026-04-23 23:36 | 36.74190 | -5.78530 | 16801 ft | 349 kts | 17° |
| 2026-04-23 23:36 | 36.76483 | -5.77654 | 16555 ft | 349 kts | 17° |
| 2026-04-23 23:36 | 36.78800 | -5.76768 | 16300 ft | 348 kts | 17° |
| 2026-04-23 23:36 | 36.81113 | -5.75884 | 16049 ft | 347 kts | 17° |
| 2026-04-23 23:37 | 36.83424 | -5.75000 | 15792 ft | 346 kts | 17° |
| 2026-04-23 23:37 | 36.85726 | -5.74118 | 15558 ft | 346 kts | 17° |
| 2026-04-23 23:37 | 36.88025 | -5.73237 | 15313 ft | 345 kts | 17° |
| 2026-04-23 23:37 | 36.90323 | -5.72356 | 15069 ft | 344 kts | 17° |
| 2026-04-23 23:38 | 36.92612 | -5.71477 | 14832 ft | 344 kts | 17° |
| 2026-04-23 23:38 | 36.94889 | -5.70603 | 14575 ft | 340 kts | 17° |
| 2026-04-23 23:38 | 36.97108 | -5.69751 | 14329 ft | 333 kts | 17° |
| 2026-04-23 23:38 | 36.99306 | -5.68906 | 14087 ft | 328 kts | 17° |
| 2026-04-23 23:39 | 37.01478 | -5.68070 | 13843 ft | 325 kts | 17° |
| 2026-04-23 23:39 | 37.03648 | -5.67235 | 13594 ft | 326 kts | 17° |
| 2026-04-23 23:39 | 37.05802 | -5.66406 | 13340 ft | 329 kts | 17° |
| 2026-04-23 23:39 | 37.07987 | -5.65564 | 13084 ft | 328 kts | 17° |
| 2026-04-23 23:40 | 37.10163 | -5.64725 | 12824 ft | 325 kts | 17° |
| 2026-04-23 23:40 | 37.12321 | -5.63893 | 12566 ft | 323 kts | 17° |
| 2026-04-23 23:40 | 37.14462 | -5.63066 | 12306 ft | 321 kts | 17° |
| 2026-04-23 23:40 | 37.16593 | -5.62243 | 12076 ft | 319 kts | 17° |
| 2026-04-23 23:41 | 37.18731 | -5.61655 | 11822 ft | 317 kts | 5° |
| 2026-04-23 23:41 | 37.20934 | -5.61516 | 11464 ft | 319 kts | 1° |
| 2026-04-23 23:41 | 37.23176 | -5.61408 | 10976 ft | 323 kts | 2° |
| 2026-04-23 23:41 | 37.25414 | -5.61158 | 10487 ft | 324 kts | 13° |
| 2026-04-23 23:42 | 37.27465 | -5.59999 | 10009 ft | 325 kts | 38° |
| 2026-04-23 23:42 | 37.28973 | -5.57919 | 9506 ft | 323 kts | 62° |
| 2026-04-23 23:42 | 37.29958 | -5.55393 | 9017 ft | 321 kts | 69° |
| 2026-04-23 23:42 | 37.30827 | -5.52828 | 8492 ft | 316 kts | 69° |
| 2026-04-23 23:43 | 37.31649 | -5.50332 | 7999 ft | 310 kts | 70° |
| 2026-04-23 23:43 | 37.32463 | -5.47842 | 7515 ft | 305 kts | 70° |
| 2026-04-23 23:43 | 37.33281 | -5.45415 | 7128 ft | 298 kts | 63° |
| 2026-04-23 23:43 | 37.34654 | -5.43572 | 6989 ft | 284 kts | 29° |
| 2026-04-23 23:44 | 37.36471 | -5.43022 | 6877 ft | 269 kts | 355° |
| 2026-04-23 23:44 | 37.38141 | -5.43821 | 6719 ft | 253 kts | 318° |
| 2026-04-23 23:44 | 37.39369 | -5.45370 | 6391 ft | 250 kts | 313° |
| 2026-04-23 23:44 | 37.40539 | -5.46995 | 5908 ft | 252 kts | 304° |
| 2026-04-23 23:45 | 37.41405 | -5.48926 | 5363 ft | 255 kts | 290° |
| 2026-04-23 23:45 | 37.41802 | -5.51102 | 4880 ft | 254 kts | 270° |
| 2026-04-23 23:45 | 37.41871 | -5.53251 | 4805 ft | 238 kts | 271° |
| 2026-04-23 23:45 | 37.41944 | -5.55267 | 4663 ft | 221 kts | 269° |
| 2026-04-23 23:46 | 37.41962 | -5.57141 | 4323 ft | 215 kts | 268° |
| 2026-04-23 23:46 | 37.41957 | -5.58998 | 3929 ft | 210 kts | 268° |
| 2026-04-23 23:46 | 37.41947 | -5.60755 | 3819 ft | 191 kts | 267° |
| 2026-04-23 23:46 | 37.41937 | -5.62357 | 3690 ft | 174 kts | 267° |
| 2026-04-23 23:47 | 37.41927 | -5.63820 | 3475 ft | 164 kts | 267° |
| 2026-04-23 23:47 | 37.41917 | -5.65239 | 3242 ft | 158 kts | 267° |
| 2026-04-23 23:47 | 37.41908 | -5.66632 | 3088 ft | 164 kts | 267° |
| 2026-04-23 23:47 | 37.41900 | -5.68035 | 2925 ft | 157 kts | 266° |
| 2026-04-23 23:48 | 37.41892 | -5.69377 | 2833 ft | 148 kts | 267° |
| 2026-04-23 23:48 | 37.41892 | -5.70665 | 2793 ft | 148 kts | 268° |
| 2026-04-23 23:48 | 37.41908 | -5.71971 | 2612 ft | 152 kts | 266° |
| 2026-04-23 23:48 | 37.41912 | -5.73309 | 2440 ft | 149 kts | 264° |
| 2026-04-23 23:49 | 37.41862 | -5.75940 | 1881 ft | 150 kts | 264° |
| 2026-04-23 23:49 | 37.41808 | -5.77254 | 1690 ft | 151 kts | 266° |
| 2026-04-23 23:49 | 37.41806 | -5.78579 | 1453 ft | 151 kts | 269° |
| 2026-04-23 23:50 | 37.41806 | -5.79858 | 1261 ft | 143 kts | 267° |
| 2026-04-23 23:50 | 37.41807 | -5.81090 | 1071 ft | 140 kts | 268° |
| 2026-04-23 23:50 | 37.41813 | -5.82315 | 928 ft | 142 kts | 266° |
| 2026-04-23 23:50 | 37.41799 | -5.83560 | 771 ft | 143 kts | 267° |
| 2026-04-23 23:51 | 37.41798 | -5.84833 | 557 ft | 147 kts | 267° |
| 2026-04-23 23:51 | 37.41800 | -5.86107 | 351 ft | 144 kts | 268° |
| 2026-04-23 23:51 | 37.41794 | -5.87373 | 174 ft | 141 kts | 267° |
| 2026-04-23 23:51 | 37.41793 | -5.88526 | 105 ft | 112 kts | 270° |
| 2026-04-23 23:52 | 37.41792 | -5.89239 | 99 ft | 59 kts | 269° |
| 2026-04-23 23:52 | 37.41793 | -5.89673 | 97 ft | 29 kts | 273° |
| 2026-04-23 23:52 | 37.41891 | -5.89826 | 97 ft | 15 kts | 338° |
| 2026-04-23 23:52 | 37.41986 | -5.89875 | 96 ft | 15 kts | 336° |
| 2026-04-23 23:53 | 37.42075 | -5.89923 | 95 ft | 14 kts | 337° |
| 2026-04-23 23:53 | 37.42159 | -5.89891 | 94 ft | 13 kts | 45° |
| 2026-04-23 23:53 | 37.42222 | -5.89811 | 93 ft | 13 kts | 44° |
| 2026-04-23 23:53 | 37.42290 | -5.89740 | 94 ft | 13 kts | 32° |
| 2026-04-23 23:54 | 37.42349 | -5.89683 | 93 ft | 9 kts | 43° |
| 2026-04-23 23:54 | 37.42381 | -5.89663 | 94 ft | 3 kts | 326° |
| 2026-04-23 23:54 | 37.42407 | -5.89680 | 93 ft | 5 kts | 13° |
| 2026-04-23 23:54 | 37.42426 | -5.89650 | 94 ft | 3 kts | 90° |
| 2026-04-23 23:55 | 37.42424 | -5.89641 | 93 ft | 0 kts | 99° |